createdAt,value
2018-03-04T00:02:08.371Z,27.40
2018-03-04T00:04:36.811Z,25.80
2018-03-04T00:07:04.636Z,28.20
2018-03-04T00:09:32.337Z,25.17
2018-03-04T00:11:59.870Z,26.00
2018-03-04T00:14:27.843Z,28.20
2018-03-04T00:16:55.511Z,25.07
2018-03-04T00:19:23.066Z,30.50
2018-03-04T00:21:51.037Z,28.67
2018-03-04T00:24:18.574Z,27.70
2018-03-04T00:26:46.093Z,26.20
2018-03-04T00:29:13.910Z,29.63
2018-03-04T00:31:41.429Z,27.53
2018-03-04T00:34:09.146Z,28.97
2018-03-04T00:36:36.997Z,32.60
2018-03-04T00:39:04.679Z,32.20
2018-03-04T00:41:33.143Z,27.70
2018-03-04T00:44:00.996Z,26.90
2018-03-04T00:46:28.508Z,27.00
2018-03-04T00:48:56.040Z,27.43
2018-03-04T00:51:23.965Z,27.30
2018-03-04T00:53:52.267Z,29.60
2018-03-04T00:56:19.829Z,27.87
2018-03-04T00:58:47.351Z,28.73
2018-03-04T01:01:15.638Z,25.33
2018-03-04T01:03:43.218Z,25.60
2018-03-04T01:06:11.090Z,25.77
2018-03-04T01:08:38.609Z,22.50
2018-03-04T01:11:06.887Z,25.13
2018-03-04T01:13:34.752Z,29.97
2018-03-04T01:16:02.450Z,27.37
2018-03-04T01:18:29.988Z,27.30
2018-03-04T01:20:58.563Z,27.77
2018-03-04T01:23:26.117Z,30.60
2018-03-04T01:25:54.389Z,31.13
2018-03-04T01:28:22.280Z,25.37
2018-03-04T01:30:49.968Z,29.60
2018-03-04T01:33:17.480Z,28.00
2018-03-04T01:35:45.793Z,26.60
2018-03-04T01:38:13.327Z,30.60
2018-03-04T01:40:40.949Z,28.63
2018-03-04T01:43:08.876Z,29.47
2018-03-04T01:45:36.398Z,29.27
2018-03-04T01:48:04.678Z,27.17
2018-03-04T01:50:33.292Z,30.00
2018-03-04T01:53:00.960Z,27.17
2018-03-04T01:55:28.553Z,28.20
2018-03-04T01:57:58.116Z,33.20
2018-03-04T02:00:25.785Z,26.07
2018-03-04T02:02:53.318Z,27.10
2018-03-04T02:05:21.920Z,29.43
2018-03-04T02:07:49.695Z,27.70
2018-03-04T02:10:17.353Z,28.90
2018-03-04T02:12:45.225Z,25.00
2018-03-04T02:15:12.749Z,29.77
2018-03-04T02:17:41.024Z,31.77
2018-03-04T02:20:09.645Z,30.20
2018-03-04T02:22:37.180Z,27.73
2018-03-04T02:25:04.721Z,27.83
2018-03-04T02:27:33.333Z,28.07
2018-03-04T02:30:00.910Z,29.73
2018-03-04T02:32:28.472Z,29.63
2018-03-04T02:34:56.316Z,26.20
2018-03-04T02:37:23.960Z,24.33
2018-03-04T02:39:51.564Z,30.33
2018-03-04T02:42:19.423Z,31.13
2018-03-04T02:44:47.065Z,29.10
2018-03-04T02:47:14.731Z,30.83
2018-03-04T02:49:42.610Z,31.83
2018-03-04T02:52:10.387Z,28.63
2018-03-04T02:54:37.905Z,30.87
2018-03-04T02:57:05.886Z,28.87
2018-03-04T02:59:33.552Z,25.40
2018-03-04T03:02:01.085Z,29.67
2018-03-04T03:04:29.681Z,28.07
2018-03-04T03:06:57.193Z,29.50
2018-03-04T03:09:24.826Z,28.20
2018-03-04T03:11:52.674Z,31.37
2018-03-04T03:14:20.193Z,32.47
2018-03-04T03:16:48.495Z,31.80
2018-03-04T03:19:16.478Z,28.97
2018-03-04T03:21:43.993Z,29.60
2018-03-04T03:24:11.587Z,29.77
2018-03-04T03:26:39.453Z,31.53
2018-03-04T03:29:06.983Z,27.27
2018-03-04T03:31:35.302Z,31.37
2018-03-04T03:34:03.273Z,28.83
2018-03-04T03:36:30.929Z,31.53
2018-03-04T03:38:58.449Z,33.63
2018-03-04T03:41:26.968Z,39.50
2018-03-04T03:43:54.537Z,29.97
2018-03-04T03:46:22.054Z,31.53
2018-03-04T03:48:49.947Z,34.87
2018-03-04T03:51:17.460Z,32.57
2018-03-04T03:53:45.066Z,33.33
2018-03-04T03:56:12.930Z,31.03
2018-03-04T03:58:40.433Z,33.73
2018-03-04T04:01:07.970Z,32.87
2018-03-04T04:03:35.818Z,36.27
2018-03-04T04:06:03.383Z,36.43
2018-03-04T04:08:31.140Z,29.73
2018-03-04T04:10:59.003Z,28.70
2018-03-04T04:13:26.524Z,33.77
2018-03-04T04:15:54.862Z,34.17
2018-03-04T04:18:22.802Z,29.77
2018-03-04T04:20:50.333Z,31.97
2018-03-04T04:23:18.746Z,32.20
2018-03-04T04:25:46.609Z,33.17
2018-03-04T04:28:14.130Z,31.57
2018-03-04T04:30:42.553Z,33.77
2018-03-04T04:33:10.425Z,33.90
2018-03-04T04:35:38.082Z,32.73
2018-03-04T04:38:05.605Z,32.23
2018-03-04T04:40:34.203Z,33.63
2018-03-04T04:43:01.728Z,31.33
2018-03-04T04:45:29.436Z,34.67
2018-03-04T04:47:57.299Z,30.30
2018-03-04T04:50:24.845Z,32.13
2018-03-04T04:52:52.370Z,34.67
2018-03-04T04:55:20.080Z,30.13
2018-03-04T04:57:47.615Z,32.17
2018-03-04T05:00:15.892Z,30.47
2018-03-04T05:02:44.502Z,35.27
2018-03-04T05:05:12.031Z,34.43
2018-03-04T05:07:40.312Z,36.17
2018-03-04T05:10:08.928Z,32.67
2018-03-04T05:12:36.475Z,33.07
2018-03-04T05:15:04.055Z,33.13
2018-03-04T05:17:31.902Z,34.10
2018-03-04T05:19:59.429Z,35.80
2018-03-04T05:22:27.839Z,34.63
2018-03-04T05:24:55.702Z,31.57
2018-03-04T05:27:23.222Z,33.83
2018-03-04T05:29:51.544Z,35.83
2018-03-04T05:32:19.392Z,32.33
2018-03-04T05:34:46.938Z,36.97
2018-03-04T05:37:15.349Z,33.73
2018-03-04T05:39:44.042Z,35.20
2018-03-04T05:42:11.594Z,35.90
2018-03-04T05:44:39.141Z,34.20
2018-03-04T05:47:06.983Z,32.93
2018-03-04T05:49:34.592Z,34.20
2018-03-04T05:52:02.115Z,34.63
2018-03-04T05:54:29.999Z,34.87
2018-03-04T05:56:57.672Z,36.17
2018-03-04T05:59:25.190Z,34.63
2018-03-04T06:01:53.804Z,34.63
2018-03-04T06:04:21.382Z,38.30
2018-03-04T06:06:48.898Z,36.67
2018-03-04T06:09:16.802Z,37.03
2018-03-04T06:11:44.441Z,36.03
2018-03-04T06:14:12.025Z,35.30
2018-03-04T06:16:39.829Z,38.70
2018-03-04T06:19:07.545Z,36.73
2018-03-04T06:21:35.070Z,37.03
2018-03-04T06:24:02.964Z,36.07
2018-03-04T06:26:30.481Z,38.43
2018-03-04T06:28:58.921Z,34.60
2018-03-04T06:31:26.771Z,36.20
2018-03-04T06:33:54.407Z,35.57
2018-03-04T06:36:22.017Z,38.67
2018-03-04T06:38:50.041Z,36.67
2018-03-04T06:41:17.568Z,39.83
2018-03-04T06:43:45.088Z,38.03
2018-03-04T06:46:13.041Z,40.97
2018-03-04T06:48:40.718Z,35.03
2018-03-04T06:51:08.245Z,36.80
2018-03-04T06:53:36.249Z,35.37
2018-03-04T06:56:03.790Z,41.87
2018-03-04T06:58:31.378Z,36.07
2018-03-04T07:00:59.199Z,39.77
2018-03-04T07:03:26.741Z,37.60
2018-03-04T07:05:55.044Z,40.00
2018-03-04T07:08:22.925Z,32.97
2018-03-04T07:10:50.504Z,37.57
2018-03-04T07:13:18.019Z,39.87
2018-03-04T07:15:46.013Z,38.97
2018-03-04T07:18:13.557Z,40.13
2018-03-04T07:20:41.097Z,37.77
2018-03-04T07:23:08.960Z,36.53
2018-03-04T07:25:36.489Z,36.27
2018-03-04T07:28:04.013Z,38.43
2018-03-04T07:30:32.001Z,40.40
2018-03-04T07:32:59.556Z,36.23
2018-03-04T07:35:27.096Z,42.30
2018-03-04T07:37:54.958Z,38.67
2018-03-04T07:40:22.476Z,37.40
2018-03-04T07:42:50.758Z,36.03
2018-03-04T07:45:19.357Z,38.70
2018-03-04T07:47:46.885Z,39.97
2018-03-04T07:50:15.208Z,41.33
2018-03-04T07:52:43.164Z,37.03
2018-03-04T07:55:10.691Z,39.63
2018-03-04T07:57:38.225Z,39.80
2018-03-04T08:00:06.290Z,44.30
2018-03-04T08:02:33.817Z,39.87
2018-03-04T08:05:01.378Z,41.53
2018-03-04T08:07:29.242Z,41.80
2018-03-04T08:09:56.763Z,40.03
2018-03-04T08:12:25.075Z,41.77
2018-03-04T08:14:53.050Z,41.63
2018-03-04T08:17:20.610Z,39.23
2018-03-04T08:19:48.234Z,42.57
2018-03-04T08:22:16.850Z,47.03
2018-03-04T08:27:56.026Z,43.07
2018-03-04T08:30:23.567Z,43.33
2018-03-04T08:32:51.092Z,41.13
2018-03-04T08:35:18.977Z,41.13
2018-03-04T08:37:46.501Z,42.17
2018-03-04T08:40:14.783Z,44.80
2018-03-04T08:45:17.932Z,41.83
2018-03-04T08:47:45.752Z,45.70
2018-03-04T08:50:14.062Z,41.93
2018-03-04T08:52:41.639Z,38.70
2018-03-04T08:55:09.530Z,44.10
2018-03-04T08:57:37.172Z,44.60
2018-03-04T09:00:05.223Z,40.30
2018-03-04T09:02:33.104Z,47.30
2018-03-04T09:05:00.675Z,47.80
2018-03-04T09:07:28.184Z,44.63
2018-03-04T09:09:56.169Z,44.07
2018-03-04T09:12:23.837Z,47.23
2018-03-04T09:14:51.344Z,61.63
2018-03-04T09:17:19.195Z,52.53
2018-03-04T09:19:46.770Z,49.83
2018-03-04T09:22:14.285Z,51.03
2018-03-04T09:24:42.148Z,47.43
2018-03-04T09:27:09.702Z,50.97
2018-03-04T09:29:37.259Z,45.43
2018-03-04T09:32:05.096Z,47.07
2018-03-04T09:34:32.640Z,43.70
2018-03-04T09:37:00.269Z,50.23
2018-03-04T09:39:28.118Z,42.67
2018-03-04T09:41:55.765Z,46.20
2018-03-04T09:44:24.266Z,51.57
2018-03-04T09:46:52.131Z,48.43
2018-03-04T09:49:19.667Z,46.40
2018-03-04T09:51:47.197Z,46.90
2018-03-04T09:54:15.834Z,44.27
2018-03-04T09:56:43.558Z,49.90
2018-03-04T09:59:11.141Z,50.57
2018-03-04T10:01:39.011Z,53.87
2018-03-04T10:04:06.513Z,47.93
2018-03-04T10:06:34.226Z,51.73
2018-03-04T10:09:02.127Z,51.70
2018-03-04T10:11:29.763Z,49.60
2018-03-04T10:13:57.332Z,56.60
2018-03-04T10:16:25.389Z,49.10
2018-03-04T10:18:52.940Z,54.37
2018-03-04T10:21:20.473Z,54.10
2018-03-04T10:23:48.357Z,49.20
2018-03-04T10:26:15.874Z,57.93
2018-03-04T10:28:44.146Z,51.70
2018-03-04T10:31:12.068Z,60.43
2018-03-04T10:33:39.596Z,53.30
2018-03-04T10:36:07.872Z,54.90
2018-03-04T10:38:35.668Z,52.73
2018-03-04T10:41:03.207Z,52.20
2018-03-04T10:43:30.889Z,54.03
2018-03-04T10:45:58.749Z,55.80
2018-03-04T10:48:26.318Z,53.07
2018-03-04T10:50:54.002Z,53.40
2018-03-04T10:53:21.880Z,56.90
2018-03-04T10:55:50.117Z,57.73
2018-03-04T10:58:17.625Z,57.10
2018-03-04T11:00:47.486Z,53.80
2018-03-04T11:03:15.818Z,56.63
2018-03-04T11:05:43.356Z,51.80
2018-03-04T11:08:11.287Z,55.97
2018-03-04T11:10:38.858Z,55.80
2018-03-04T11:13:06.404Z,55.43
2018-03-04T11:15:34.297Z,55.77
2018-03-04T11:18:01.826Z,57.43
2018-03-04T11:20:29.446Z,52.77
2018-03-04T11:22:57.276Z,54.73
2018-03-04T11:25:24.805Z,53.33
2018-03-04T11:27:52.380Z,60.00
2018-03-04T11:30:20.242Z,55.50
2018-03-04T11:32:47.764Z,64.93
2018-03-04T11:35:15.280Z,60.83
2018-03-04T11:37:43.133Z,56.20
2018-03-04T11:40:10.663Z,55.87
2018-03-04T11:42:38.190Z,55.67
2018-03-04T11:45:06.000Z,64.60
2018-03-04T11:47:33.515Z,54.53
2018-03-04T11:50:01.114Z,57.90
2018-03-04T11:52:29.097Z,57.07
2018-03-04T11:54:56.653Z,55.73
2018-03-04T11:57:24.187Z,57.80
2018-03-04T11:59:52.138Z,56.67
2018-03-04T12:02:20.441Z,63.47
2018-03-04T12:04:47.967Z,58.03
2018-03-04T12:07:15.874Z,67.70
2018-03-04T12:09:43.438Z,54.57
2018-03-04T12:12:10.983Z,57.30
2018-03-04T12:14:38.840Z,55.43
2018-03-04T12:17:06.487Z,53.53
2018-03-04T12:19:34.772Z,56.07
2018-03-04T12:22:03.510Z,57.77
2018-03-04T12:24:31.047Z,60.97
2018-03-04T12:26:58.595Z,55.60
2018-03-04T12:29:26.474Z,56.50
2018-03-04T12:31:54.070Z,59.90
2018-03-04T12:34:21.678Z,55.50
2018-03-04T12:36:49.688Z,60.10
2018-03-04T12:39:17.203Z,59.53
2018-03-04T12:41:44.727Z,64.60
2018-03-04T12:44:12.674Z,57.00
2018-03-04T12:46:40.186Z,59.20
2018-03-04T12:49:07.857Z,59.53
2018-03-04T12:51:35.716Z,62.80
2018-03-04T12:54:03.317Z,55.13
2018-03-04T12:56:30.836Z,61.80
2018-03-04T12:58:58.743Z,62.13
2018-03-04T13:01:26.296Z,59.53
2018-03-04T13:03:53.824Z,56.30
2018-03-04T13:06:21.512Z,59.60
2018-03-04T13:08:49.101Z,61.90
2018-03-04T13:11:17.056Z,65.97
2018-03-04T13:13:44.581Z,55.77
2018-03-04T13:16:12.343Z,61.27
2018-03-04T13:18:40.017Z,60.30
2018-03-04T13:21:07.668Z,57.20
2018-03-04T13:23:35.547Z,59.67
2018-03-04T13:26:03.440Z,63.97
2018-03-04T13:28:31.174Z,62.07
2018-03-04T13:30:59.059Z,62.23
2018-03-04T13:33:26.594Z,61.13
2018-03-04T13:35:54.201Z,61.70
2018-03-04T13:38:21.761Z,62.87
2018-03-04T13:40:49.390Z,66.07
2018-03-04T13:43:17.247Z,56.87
2018-03-04T13:45:44.767Z,64.90
2018-03-04T13:48:12.300Z,56.00
2018-03-04T13:50:39.829Z,62.57
2018-03-04T13:53:07.374Z,58.73
2018-03-04T13:55:35.181Z,62.63
2018-03-04T13:58:03.518Z,65.80
2018-03-04T14:00:31.035Z,61.97
2018-03-04T14:02:59.347Z,65.83
2018-03-04T14:05:26.869Z,64.30
2018-03-04T14:07:54.662Z,64.63
2018-03-04T14:10:22.346Z,64.20
2018-03-04T14:12:49.893Z,64.53
2018-03-04T14:15:17.445Z,61.90
2018-03-04T14:17:45.022Z,61.03
2018-03-04T14:20:12.895Z,58.40
2018-03-04T14:22:40.549Z,65.70
2018-03-04T14:25:08.087Z,62.77
2018-03-04T14:27:35.629Z,67.53
2018-03-04T14:30:03.154Z,66.70
2018-03-04T14:32:30.976Z,61.27
2018-03-04T14:34:58.523Z,65.00
2018-03-04T14:37:26.093Z,58.37
2018-03-04T14:39:54.397Z,61.40
2018-03-04T14:42:21.937Z,59.70
2018-03-04T14:44:50.115Z,67.50
2018-03-04T14:47:17.645Z,62.87
2018-03-04T14:49:45.244Z,63.47
2018-03-04T14:52:12.839Z,61.80
2018-03-04T14:54:41.154Z,60.70
2018-03-04T14:57:09.127Z,67.60
2018-03-04T14:59:36.650Z,64.23
2018-03-04T15:02:04.974Z,66.60
2018-03-04T15:04:32.555Z,56.80
2018-03-04T15:07:00.095Z,60.47
2018-03-04T15:09:28.084Z,62.40
2018-03-04T15:11:55.620Z,62.37
2018-03-04T15:14:23.171Z,62.30
2018-03-04T15:16:50.739Z,61.60
2018-03-04T15:19:18.272Z,63.10
2018-03-04T15:21:46.177Z,58.10
2018-03-04T15:24:13.707Z,57.70
2018-03-04T15:26:41.388Z,59.23
2018-03-04T15:29:09.260Z,57.27
2018-03-04T15:31:36.809Z,57.37
2018-03-04T15:34:04.372Z,55.83
2018-03-04T15:36:31.959Z,59.53
2018-03-04T15:38:59.518Z,61.30
2018-03-04T15:41:27.371Z,57.10
2018-03-04T15:43:54.920Z,58.50
2018-03-04T15:46:22.507Z,61.57
2018-03-04T15:48:50.423Z,58.60
2018-03-04T15:51:17.964Z,61.57
2018-03-04T15:53:45.566Z,60.37
2018-03-04T15:56:13.444Z,61.63
2018-03-04T15:58:40.981Z,55.10
2018-03-04T16:01:08.523Z,57.90
2018-03-04T16:03:36.325Z,59.70
2018-03-04T16:06:03.903Z,59.77
2018-03-04T16:08:32.658Z,60.30
2018-03-04T16:11:00.230Z,58.33
2018-03-04T16:13:27.771Z,57.57
2018-03-04T16:15:55.359Z,57.80
2018-03-04T16:18:22.900Z,62.03
2018-03-04T16:20:51.775Z,58.37
2018-03-04T16:23:19.323Z,56.60
2018-03-04T16:25:46.875Z,61.57
2018-03-04T16:28:14.428Z,59.47
2018-03-04T16:30:42.026Z,57.70
2018-03-04T16:33:09.934Z,60.83
2018-03-04T16:35:38.284Z,58.63
2018-03-04T16:38:07.347Z,58.80
2018-03-04T16:40:34.915Z,60.23
2018-03-04T16:43:02.550Z,63.13
2018-03-04T16:45:30.549Z,62.47
2018-03-04T16:47:58.125Z,63.37
2018-03-04T16:50:25.708Z,58.83
2018-03-04T16:52:54.141Z,60.23
2018-03-04T16:55:21.707Z,59.30
2018-03-04T17:07:34.636Z,68.23
2018-03-04T17:10:02.971Z,64.77
2018-03-04T17:12:30.926Z,61.87
2018-03-04T17:14:58.491Z,64.43
2018-03-04T17:17:26.061Z,65.67
2018-03-04T17:19:53.682Z,61.33
2018-03-04T17:22:21.240Z,61.07
2018-03-04T17:24:49.107Z,61.10
2018-03-04T17:27:16.669Z,61.60
2018-03-04T17:29:44.228Z,70.10
2018-03-04T17:32:11.923Z,65.70
2018-03-04T17:34:39.485Z,64.47
2018-03-04T17:37:07.368Z,64.03
2018-03-04T17:39:35.809Z,64.00
2018-03-04T17:42:03.387Z,60.70
2018-03-04T17:44:30.953Z,66.23
2018-03-04T17:46:58.544Z,64.33
2018-03-04T17:49:27.202Z,61.97
2018-03-04T17:51:54.768Z,60.70
2018-03-04T17:54:22.353Z,61.57
2018-03-04T17:56:49.939Z,62.03
2018-03-04T17:59:17.500Z,65.63
2018-03-04T18:01:45.454Z,64.17
2018-03-04T18:04:13.071Z,60.33
2018-03-04T18:06:40.704Z,63.20
2018-03-04T18:09:08.262Z,62.57
2018-03-04T18:11:36.195Z,56.40
2018-03-04T18:14:04.945Z,65.30
2018-03-04T18:26:17.834Z,59.77
2018-03-04T18:28:46.272Z,59.97
2018-03-04T18:31:13.824Z,59.43
2018-03-04T18:33:41.389Z,60.93
2018-03-04T18:36:08.968Z,56.20
2018-03-04T18:38:36.826Z,63.47
2018-03-04T18:41:04.430Z,55.37
2018-03-04T18:43:32.961Z,62.57
2018-03-04T18:46:00.826Z,56.50
2018-03-04T18:48:29.188Z,56.67
2018-03-04T18:50:56.799Z,61.10
2018-03-04T18:53:25.439Z,70.60
2018-03-04T18:55:53.011Z,71.20
2018-03-04T18:58:20.892Z,71.67
2018-03-04T19:00:48.453Z,71.60
2018-03-04T19:03:16.077Z,66.27
2018-03-04T19:05:43.843Z,68.07
2018-03-04T19:08:11.541Z,63.27
2018-03-04T19:10:40.332Z,66.27
2018-03-04T19:13:07.954Z,72.60
2018-03-04T19:15:35.628Z,72.27
2018-03-04T19:18:03.427Z,74.30
2018-03-04T19:20:31.011Z,70.97
2018-03-04T19:22:59.105Z,65.57
2018-03-04T19:25:26.742Z,71.60
2018-03-04T19:27:55.072Z,59.13
2018-03-04T19:30:22.697Z,63.53
2018-03-04T19:32:50.350Z,62.20
2018-03-04T19:35:18.416Z,64.73
2018-03-04T19:37:46.080Z,60.23
2018-03-04T19:40:14.180Z,61.50
2018-03-04T19:42:42.732Z,58.40
2018-03-04T19:45:10.332Z,59.00
2018-03-04T19:47:38.262Z,62.50
2018-03-04T19:50:06.265Z,67.43
2018-03-04T19:52:34.697Z,66.27
2018-03-04T19:55:02.401Z,66.37
2018-03-04T19:57:31.011Z,57.97
2018-03-04T19:59:58.983Z,62.27
2018-03-04T20:02:26.552Z,57.77
2018-03-04T20:04:54.272Z,61.70
2018-03-04T20:07:21.878Z,66.07
2018-03-04T20:09:50.324Z,61.57
2018-03-04T20:12:19.164Z,67.97
2018-03-04T20:14:46.755Z,69.70
2018-03-04T20:17:15.508Z,65.07
2018-03-04T20:19:43.109Z,67.33
2018-03-04T20:22:10.709Z,67.20
2018-03-04T20:24:38.574Z,71.10
2018-03-04T20:27:06.133Z,64.20
2018-03-04T20:29:33.738Z,62.93
2018-03-04T20:32:01.372Z,65.43
2018-03-04T20:34:28.974Z,65.90
2018-03-04T20:36:57.417Z,63.73
2018-03-04T20:39:25.736Z,64.00
2018-03-04T20:41:53.329Z,62.13
2018-03-04T20:44:20.952Z,67.10
2018-03-04T20:46:48.569Z,66.30
2018-03-04T20:49:17.591Z,68.33
2018-03-04T20:51:45.144Z,68.40
2018-03-04T20:54:12.723Z,67.37
2018-03-04T20:56:40.293Z,62.97
2018-03-04T20:59:07.876Z,68.83
2018-03-04T21:01:35.746Z,66.13
2018-03-04T21:04:03.309Z,72.23
2018-03-04T21:06:31.650Z,76.27
2018-03-04T21:08:59.202Z,69.27
2018-03-04T21:11:26.909Z,62.23
2018-03-04T21:13:54.765Z,70.67
2018-03-04T21:16:22.318Z,70.47
2018-03-04T21:18:50.077Z,71.87
2018-03-04T21:21:17.655Z,65.53
2018-03-04T21:23:45.191Z,67.97
2018-03-04T21:26:13.061Z,72.37
2018-03-04T21:28:40.607Z,65.63
2018-03-04T21:31:08.136Z,63.87
2018-03-04T21:33:35.696Z,68.10
2018-03-04T21:36:03.296Z,65.07
2018-03-04T21:38:31.164Z,69.30
2018-03-04T21:40:58.781Z,66.63
2018-03-04T21:43:26.318Z,69.00
2018-03-04T21:45:54.944Z,68.73
2018-03-04T21:48:22.500Z,65.83
2018-03-04T21:50:50.072Z,69.03
2018-03-04T21:53:17.629Z,69.27
2018-03-04T21:55:45.233Z,65.90
2018-03-04T21:58:13.164Z,66.63
2018-03-04T22:00:40.698Z,66.70
2018-03-04T22:03:08.226Z,68.13
2018-03-04T22:05:35.979Z,65.73
2018-03-04T22:08:03.478Z,63.80
2018-03-04T22:10:31.298Z,69.43
2018-03-04T22:12:58.835Z,65.97
2018-03-04T22:15:26.361Z,64.03
2018-03-04T22:17:53.937Z,64.77
2018-03-04T22:20:21.512Z,61.57
2018-03-04T22:22:49.313Z,63.77
2018-03-04T22:25:16.819Z,68.03
2018-03-04T22:27:44.335Z,66.37
2018-03-04T22:30:11.920Z,63.57
2018-03-04T22:32:39.495Z,67.20
2018-03-04T22:35:07.314Z,67.30
2018-03-04T22:37:35.597Z,69.87
2018-03-04T22:40:03.996Z,67.67
2018-03-04T22:42:31.534Z,67.00
2018-03-04T22:44:59.805Z,65.40
2018-03-04T22:47:28.424Z,69.17
2018-03-04T22:49:55.929Z,66.53
2018-03-04T22:52:23.442Z,68.67
2018-03-04T22:54:51.204Z,66.20
2018-03-04T22:57:18.808Z,64.70
2018-03-04T22:59:46.669Z,71.87
2018-03-04T23:02:14.202Z,64.80
2018-03-04T23:04:41.848Z,65.03
2018-03-04T23:07:09.717Z,63.70
2018-03-04T23:09:37.286Z,61.43
2018-03-04T23:12:04.788Z,63.53
2018-03-04T23:14:32.697Z,61.57
2018-03-04T23:17:00.232Z,63.23
2018-03-04T23:19:27.770Z,64.00
2018-03-04T23:21:55.663Z,63.77
2018-03-04T23:24:23.185Z,58.47
2018-03-04T23:26:51.473Z,59.97
2018-03-04T23:29:20.090Z,60.03
2018-03-04T23:31:47.619Z,62.87
2018-03-04T23:34:15.137Z,58.07
2018-03-04T23:36:42.969Z,67.13
2018-03-04T23:39:10.488Z,61.77
2018-03-04T23:41:38.006Z,65.43
2018-03-04T23:44:05.911Z,69.37
2018-03-04T23:46:33.514Z,65.63
2018-03-04T23:49:01.167Z,68.70
2018-03-04T23:51:29.047Z,67.73
2018-03-04T23:53:56.805Z,64.63
2018-03-04T23:56:24.317Z,63.50
2018-03-04T23:58:52.334Z,62.83
